sensor_id;sensor_type;location;lat;lon;timestamp;temperature;humidity
17341;DHT22;8788;49.930;8.660;2023-10-19T00:00:49;13.40;99.90
17341;DHT22;8788;49.930;8.660;2023-10-19T00:03:18;13.40;99.90
17341;DHT22;8788;49.930;8.660;2023-10-19T00:05:45;13.40;99.90
17341;DHT22;8788;49.930;8.660;2023-10-19T00:08:13;13.40;99.90
17341;DHT22;8788;49.930;8.660;2023-10-19T00:10:47;13.50;99.90
17341;DHT22;8788;49.930;8.660;2023-10-19T00:13:16;13.40;99.90
17341;DHT22;8788;49.930;8.660;2023-10-19T00:15:45;13.50;99.90
17341;DHT22;8788;49.930;8.660;2023-10-19T00:18:14;13.50;99.90
17341;DHT22;8788;49.930;8.660;2023-10-19T00:20:53;13.50;99.90
17341;DHT22;8788;49.930;8.660;2023-10-19T00:23:25;13.50;99.90
17341;DHT22;8788;49.930;8.660;2023-10-19T00:25:57;13.50;99.90
17341;DHT22;8788;49.930;8.660;2023-10-19T00:28:24;13.60;99.90
17341;DHT22;8788;49.930;8.660;2023-10-19T00:30:53;13.60;99.90
17341;DHT22;8788;49.930;8.660;2023-10-19T00:33:19;13.50;99.90
17341;DHT22;8788;49.930;8.660;2023-10-19T00:35:48;13.50;99.90
17341;DHT22;8788;49.930;8.660;2023-10-19T00:38:24;13.60;99.90
17341;DHT22;8788;49.930;8.660;2023-10-19T00:41:06;13.60;99.90
17341;DHT22;8788;49.930;8.660;2023-10-19T00:43:38;13.60;99.90
17341;DHT22;8788;49.930;8.660;2023-10-19T00:46:09;13.50;99.90
17341;DHT22;8788;49.930;8.660;2023-10-19T00:48:44;13.60;99.90
17341;DHT22;8788;49.930;8.660;2023-10-19T00:51:13;13.50;99.90
17341;DHT22;8788;49.930;8.660;2023-10-19T00:53:55;13.50;99.90
17341;DHT22;8788;49.930;8.660;2023-10-19T00:56:24;13.50;99.90
17341;DHT22;8788;49.930;8.660;2023-10-19T00:58:57;13.50;99.90
17341;DHT22;8788;49.930;8.660;2023-10-19T01:01:33;13.50;99.90
17341;DHT22;8788;49.930;8.660;2023-10-19T01:04:09;13.50;99.90
17341;DHT22;8788;49.930;8.660;2023-10-19T01:06:40;13.50;99.90
17341;DHT22;8788;49.930;8.660;2023-10-19T01:09:11;13.50;99.90
17341;DHT22;8788;49.930;8.660;2023-10-19T01:11:42;13.50;99.90
17341;DHT22;8788;49.930;8.660;2023-10-19T01:14:21;13.50;99.90
17341;DHT22;8788;49.930;8.660;2023-10-19T01:16:49;13.60;99.90
17341;DHT22;8788;49.930;8.660;2023-10-19T01:19:16;13.60;99.90
17341;DHT22;8788;49.930;8.660;2023-10-19T01:21:44;13.70;99.90
17341;DHT22;8788;49.930;8.660;2023-10-19T01:24:20;13.70;99.90
17341;DHT22;8788;49.930;8.660;2023-10-19T01:26:57;13.70;99.90
17341;DHT22;8788;49.930;8.660;2023-10-19T01:29:25;13.70;99.90
17341;DHT22;8788;49.930;8.660;2023-10-19T01:31:54;13.70;99.90
17341;DHT22;8788;49.930;8.660;2023-10-19T01:34:31;13.70;99.90
17341;DHT22;8788;49.930;8.660;2023-10-19T01:37:00;13.70;99.90
17341;DHT22;8788;49.930;8.660;2023-10-19T01:39:31;13.80;99.90
17341;DHT22;8788;49.930;8.660;2023-10-19T01:42:01;13.80;99.90
17341;DHT22;8788;49.930;8.660;2023-10-19T01:44:27;13.80;99.90
17341;DHT22;8788;49.930;8.660;2023-10-19T01:46:54;13.70;99.90
17341;DHT22;8788;49.930;8.660;2023-10-19T01:49:21;13.70;99.90
17341;DHT22;8788;49.930;8.660;2023-10-19T01:51:53;13.70;99.90
17341;DHT22;8788;49.930;8.660;2023-10-19T01:54:20;13.70;99.90
17341;DHT22;8788;49.930;8.660;2023-10-19T01:56:53;13.60;99.90
17341;DHT22;8788;49.930;8.660;2023-10-19T01:59:22;13.60;99.90
17341;DHT22;8788;49.930;8.660;2023-10-19T02:01:53;13.60;99.90
17341;DHT22;8788;49.930;8.660;2023-10-19T02:04:20;13.50;99.90
17341;DHT22;8788;49.930;8.660;2023-10-19T02:06:48;13.60;99.90
17341;DHT22;8788;49.930;8.660;2023-10-19T02:09:17;13.80;99.90
17341;DHT22;8788;49.930;8.660;2023-10-19T02:11:48;13.90;99.90
17341;DHT22;8788;49.930;8.660;2023-10-19T02:14:18;14.00;99.90
17341;DHT22;8788;49.930;8.660;2023-10-19T02:16:46;14.10;99.90
17341;DHT22;8788;49.930;8.660;2023-10-19T02:19:13;14.10;99.90
17341;DHT22;8788;49.930;8.660;2023-10-19T02:21:40;14.20;99.90
17341;DHT22;8788;49.930;8.660;2023-10-19T02:24:07;14.20;99.90
17341;DHT22;8788;49.930;8.660;2023-10-19T02:26:34;14.20;99.90
17341;DHT22;8788;49.930;8.660;2023-10-19T02:29:02;14.20;99.90
17341;DHT22;8788;49.930;8.660;2023-10-19T02:31:34;14.20;99.90
17341;DHT22;8788;49.930;8.660;2023-10-19T02:34:04;14.20;99.90
17341;DHT22;8788;49.930;8.660;2023-10-19T02:36:32;14.10;99.90
17341;DHT22;8788;49.930;8.660;2023-10-19T02:38:59;14.10;99.90
17341;DHT22;8788;49.930;8.660;2023-10-19T02:41:27;14.10;99.90
17341;DHT22;8788;49.930;8.660;2023-10-19T02:43:53;14.10;99.90
17341;DHT22;8788;49.930;8.660;2023-10-19T02:46:31;14.10;99.90
17341;DHT22;8788;49.930;8.660;2023-10-19T02:49:02;14.20;99.90
17341;DHT22;8788;49.930;8.660;2023-10-19T02:51:29;14.10;99.90
17341;DHT22;8788;49.930;8.660;2023-10-19T02:53:56;14.10;99.90
17341;DHT22;8788;49.930;8.660;2023-10-19T02:56:22;14.10;99.90
17341;DHT22;8788;49.930;8.660;2023-10-19T02:58:52;14.10;99.90
17341;DHT22;8788;49.930;8.660;2023-10-19T03:01:20;14.20;99.90
17341;DHT22;8788;49.930;8.660;2023-10-19T03:03:55;14.20;99.90
17341;DHT22;8788;49.930;8.660;2023-10-19T03:06:28;14.20;99.90
17341;DHT22;8788;49.930;8.660;2023-10-19T03:08:57;14.30;99.90
17341;DHT22;8788;49.930;8.660;2023-10-19T03:11:27;14.30;99.90
17341;DHT22;8788;49.930;8.660;2023-10-19T03:13:54;14.30;99.90
17341;DHT22;8788;49.930;8.660;2023-10-19T03:16:23;14.30;99.90
17341;DHT22;8788;49.930;8.660;2023-10-19T03:18:49;14.30;99.90
17341;DHT22;8788;49.930;8.660;2023-10-19T03:21:16;14.30;99.90
17341;DHT22;8788;49.930;8.660;2023-10-19T03:23:46;14.30;99.90
17341;DHT22;8788;49.930;8.660;2023-10-19T03:26:13;14.30;99.90
17341;DHT22;8788;49.930;8.660;2023-10-19T03:28:56;14.30;99.90
17341;DHT22;8788;49.930;8.660;2023-10-19T03:31:28;14.30;99.90
17341;DHT22;8788;49.930;8.660;2023-10-19T03:33:58;14.30;99.90
17341;DHT22;8788;49.930;8.660;2023-10-19T03:36:30;14.30;99.90
17341;DHT22;8788;49.930;8.660;2023-10-19T03:38:59;14.30;99.90
17341;DHT22;8788;49.930;8.660;2023-10-19T03:41:38;14.30;99.90
17341;DHT22;8788;49.930;8.660;2023-10-19T03:44:08;14.20;99.90
17341;DHT22;8788;49.930;8.660;2023-10-19T03:46:41;14.10;99.90
17341;DHT22;8788;49.930;8.660;2023-10-19T03:49:19;14.20;99.90
17341;DHT22;8788;49.930;8.660;2023-10-19T03:51:46;14.10;99.90
17341;DHT22;8788;49.930;8.660;2023-10-19T03:54:27;14.20;99.90
17341;DHT22;8788;49.930;8.660;2023-10-19T03:56:58;14.30;99.90
17341;DHT22;8788;49.930;8.660;2023-10-19T03:59:29;14.30;99.90
17341;DHT22;8788;49.930;8.660;2023-10-19T04:01:59;14.30;99.90
17341;DHT22;8788;49.930;8.660;2023-10-19T04:04:34;14.30;99.90
17341;DHT22;8788;49.930;8.660;2023-10-19T04:07:01;14.20;99.90
17341;DHT22;8788;49.930;8.660;2023-10-19T04:09:37;14.30;99.90
17341;DHT22;8788;49.930;8.660;2023-10-19T04:12:22;14.30;99.90
17341;DHT22;8788;49.930;8.660;2023-10-19T04:14:50;14.40;99.90
17341;DHT22;8788;49.930;8.660;2023-10-19T04:17:17;14.40;99.90
17341;DHT22;8788;49.930;8.660;2023-10-19T04:19:46;14.40;99.90
17341;DHT22;8788;49.930;8.660;2023-10-19T04:22:14;14.50;99.90
17341;DHT22;8788;49.930;8.660;2023-10-19T04:24:49;14.50;99.90
17341;DHT22;8788;49.930;8.660;2023-10-19T04:27:16;14.40;99.90
17341;DHT22;8788;49.930;8.660;2023-10-19T04:29:47;14.40;99.90
17341;DHT22;8788;49.930;8.660;2023-10-19T04:32:15;14.40;99.90
17341;DHT22;8788;49.930;8.660;2023-10-19T04:34:51;14.50;99.90
17341;DHT22;8788;49.930;8.660;2023-10-19T04:37:18;14.50;99.90
17341;DHT22;8788;49.930;8.660;2023-10-19T04:39:45;14.50;99.90
17341;DHT22;8788;49.930;8.660;2023-10-19T04:42:16;14.50;99.90
17341;DHT22;8788;49.930;8.660;2023-10-19T04:44:45;14.50;99.90
17341;DHT22;8788;49.930;8.660;2023-10-19T04:47:12;14.60;99.90
17341;DHT22;8788;49.930;8.660;2023-10-19T04:49:39;14.50;99.90
17341;DHT22;8788;49.930;8.660;2023-10-19T04:52:07;14.50;99.90
17341;DHT22;8788;49.930;8.660;2023-10-19T04:54:34;14.50;99.90
17341;DHT22;8788;49.930;8.660;2023-10-19T04:57:03;14.50;99.90
17341;DHT22;8788;49.930;8.660;2023-10-19T04:59:32;14.50;99.90
17341;DHT22;8788;49.930;8.660;2023-10-19T05:01:59;14.50;99.90
17341;DHT22;8788;49.930;8.660;2023-10-19T05:04:27;14.50;99.90
17341;DHT22;8788;49.930;8.660;2023-10-19T05:06:55;14.50;99.90
17341;DHT22;8788;49.930;8.660;2023-10-19T05:09:22;14.50;99.90
17341;DHT22;8788;49.930;8.660;2023-10-19T05:11:49;14.50;99.90
17341;DHT22;8788;49.930;8.660;2023-10-19T05:14:18;14.50;99.90
17341;DHT22;8788;49.930;8.660;2023-10-19T05:16:47;14.50;99.90
17341;DHT22;8788;49.930;8.660;2023-10-19T05:19:15;14.50;99.90
17341;DHT22;8788;49.930;8.660;2023-10-19T05:21:42;14.50;99.90
17341;DHT22;8788;49.930;8.660;2023-10-19T05:24:10;14.50;99.90
17341;DHT22;8788;49.930;8.660;2023-10-19T05:26:37;14.50;99.90
17341;DHT22;8788;49.930;8.660;2023-10-19T05:29:04;14.60;99.90
17341;DHT22;8788;49.930;8.660;2023-10-19T05:31:31;14.60;99.90
17341;DHT22;8788;49.930;8.660;2023-10-19T05:34:00;14.60;99.90
17341;DHT22;8788;49.930;8.660;2023-10-19T05:36:28;14.60;99.90
17341;DHT22;8788;49.930;8.660;2023-10-19T05:38:55;14.60;99.90
17341;DHT22;8788;49.930;8.660;2023-10-19T05:41:22;14.60;99.90
17341;DHT22;8788;49.930;8.660;2023-10-19T05:43:49;14.60;99.90
17341;DHT22;8788;49.930;8.660;2023-10-19T05:46:16;14.60;99.90
17341;DHT22;8788;49.930;8.660;2023-10-19T05:48:44;14.60;99.90
17341;DHT22;8788;49.930;8.660;2023-10-19T05:51:13;14.60;99.90
17341;DHT22;8788;49.930;8.660;2023-10-19T05:53:41;14.60;99.90
17341;DHT22;8788;49.930;8.660;2023-10-19T05:56:09;14.50;99.90
17341;DHT22;8788;49.930;8.660;2023-10-19T05:58:36;14.50;99.90
17341;DHT22;8788;49.930;8.660;2023-10-19T06:01:03;14.60;99.90
17341;DHT22;8788;49.930;8.660;2023-10-19T06:03:30;14.60;99.90
17341;DHT22;8788;49.930;8.660;2023-10-19T06:05:57;14.60;99.90
17341;DHT22;8788;49.930;8.660;2023-10-19T06:08:26;14.70;99.90
17341;DHT22;8788;49.930;8.660;2023-10-19T06:10:54;14.70;99.90
17341;DHT22;8788;49.930;8.660;2023-10-19T06:13:21;14.70;99.90
17341;DHT22;8788;49.930;8.660;2023-10-19T06:15:49;14.80;99.90
17341;DHT22;8788;49.930;8.660;2023-10-19T06:18:17;14.80;99.90
17341;DHT22;8788;49.930;8.660;2023-10-19T06:20:44;14.80;99.90
17341;DHT22;8788;49.930;8.660;2023-10-19T06:23:11;14.80;99.90
17341;DHT22;8788;49.930;8.660;2023-10-19T06:25:40;14.90;99.90
17341;DHT22;8788;49.930;8.660;2023-10-19T06:28:08;14.90;99.90
17341;DHT22;8788;49.930;8.660;2023-10-19T06:30:37;14.90;99.90
17341;DHT22;8788;49.930;8.660;2023-10-19T06:33:06;15.00;99.90
17341;DHT22;8788;49.930;8.660;2023-10-19T06:35:34;15.00;99.90
17341;DHT22;8788;49.930;8.660;2023-10-19T06:38:03;15.00;99.90
17341;DHT22;8788;49.930;8.660;2023-10-19T06:40:30;15.00;99.90
17341;DHT22;8788;49.930;8.660;2023-10-19T06:42:59;15.00;99.90
17341;DHT22;8788;49.930;8.660;2023-10-19T06:45:28;15.00;99.90
17341;DHT22;8788;49.930;8.660;2023-10-19T06:47:56;15.00;99.90
17341;DHT22;8788;49.930;8.660;2023-10-19T06:50:24;15.10;99.90
17341;DHT22;8788;49.930;8.660;2023-10-19T06:52:51;15.10;99.90
17341;DHT22;8788;49.930;8.660;2023-10-19T06:55:20;15.30;99.90
17341;DHT22;8788;49.930;8.660;2023-10-19T06:57:50;15.40;99.90
17341;DHT22;8788;49.930;8.660;2023-10-19T07:00:21;15.50;99.90
17341;DHT22;8788;49.930;8.660;2023-10-19T07:02:49;15.60;99.90
17341;DHT22;8788;49.930;8.660;2023-10-19T07:05:18;15.60;99.90
17341;DHT22;8788;49.930;8.660;2023-10-19T07:07:48;15.70;99.90
17341;DHT22;8788;49.930;8.660;2023-10-19T07:10:18;15.70;99.90
17341;DHT22;8788;49.930;8.660;2023-10-19T07:12:46;15.80;99.90
17341;DHT22;8788;49.930;8.660;2023-10-19T07:15:14;15.80;99.90
17341;DHT22;8788;49.930;8.660;2023-10-19T07:17:43;15.80;99.90
17341;DHT22;8788;49.930;8.660;2023-10-19T07:20:11;15.80;99.90
17341;DHT22;8788;49.930;8.660;2023-10-19T07:22:51;15.80;99.90
17341;DHT22;8788;49.930;8.660;2023-10-19T07:25:18;15.80;99.90
17341;DHT22;8788;49.930;8.660;2023-10-19T07:27:47;15.70;99.90
17341;DHT22;8788;49.930;8.660;2023-10-19T07:30:15;15.70;99.90
17341;DHT22;8788;49.930;8.660;2023-10-19T07:32:48;15.70;99.90
17341;DHT22;8788;49.930;8.660;2023-10-19T07:35:20;15.60;99.90
17341;DHT22;8788;49.930;8.660;2023-10-19T07:37:48;15.70;99.90
17341;DHT22;8788;49.930;8.660;2023-10-19T07:40:16;15.80;99.90
17341;DHT22;8788;49.930;8.660;2023-10-19T07:42:43;15.80;99.90
17341;DHT22;8788;49.930;8.660;2023-10-19T07:45:11;15.90;99.90
17341;DHT22;8788;49.930;8.660;2023-10-19T07:47:38;16.00;99.90
17341;DHT22;8788;49.930;8.660;2023-10-19T07:50:09;16.00;99.90
17341;DHT22;8788;49.930;8.660;2023-10-19T07:52:38;16.10;99.90
17341;DHT22;8788;49.930;8.660;2023-10-19T07:55:06;16.10;99.90
17341;DHT22;8788;49.930;8.660;2023-10-19T07:57:33;16.10;99.90
17341;DHT22;8788;49.930;8.660;2023-10-19T08:00:01;16.20;99.90
17341;DHT22;8788;49.930;8.660;2023-10-19T08:02:30;16.20;99.90
17341;DHT22;8788;49.930;8.660;2023-10-19T08:05:00;16.20;99.90
17341;DHT22;8788;49.930;8.660;2023-10-19T08:07:30;16.30;99.90
17341;DHT22;8788;49.930;8.660;2023-10-19T08:09:57;16.30;99.90
17341;DHT22;8788;49.930;8.660;2023-10-19T08:12:24;16.40;99.90
17341;DHT22;8788;49.930;8.660;2023-10-19T08:14:52;16.50;99.90
17341;DHT22;8788;49.930;8.660;2023-10-19T08:17:21;16.50;99.90
17341;DHT22;8788;49.930;8.660;2023-10-19T08:19:49;16.60;99.90
17341;DHT22;8788;49.930;8.660;2023-10-19T08:22:16;16.60;99.90
17341;DHT22;8788;49.930;8.660;2023-10-19T08:24:44;16.70;99.90
17341;DHT22;8788;49.930;8.660;2023-10-19T08:27:12;16.70;99.90
17341;DHT22;8788;49.930;8.660;2023-10-19T08:29:39;16.70;99.90
17341;DHT22;8788;49.930;8.660;2023-10-19T08:32:06;16.80;99.90
17341;DHT22;8788;49.930;8.660;2023-10-19T08:34:34;16.90;99.90
17341;DHT22;8788;49.930;8.660;2023-10-19T08:37:02;16.90;99.90
17341;DHT22;8788;49.930;8.660;2023-10-19T08:39:30;16.90;99.90
17341;DHT22;8788;49.930;8.660;2023-10-19T08:42:03;16.80;99.90
17341;DHT22;8788;49.930;8.660;2023-10-19T08:44:31;16.90;99.90
17341;DHT22;8788;49.930;8.660;2023-10-19T08:46:58;17.00;99.90
17341;DHT22;8788;49.930;8.660;2023-10-19T08:49:26;17.10;99.90
17341;DHT22;8788;49.930;8.660;2023-10-19T08:51:54;17.10;99.90
17341;DHT22;8788;49.930;8.660;2023-10-19T08:54:21;17.20;99.90
17341;DHT22;8788;49.930;8.660;2023-10-19T08:56:49;17.10;99.90
17341;DHT22;8788;49.930;8.660;2023-10-19T08:59:17;17.10;99.90
17341;DHT22;8788;49.930;8.660;2023-10-19T09:01:44;17.10;99.90
17341;DHT22;8788;49.930;8.660;2023-10-19T09:04:12;17.20;99.90
17341;DHT22;8788;49.930;8.660;2023-10-19T09:06:42;17.20;99.90
17341;DHT22;8788;49.930;8.660;2023-10-19T09:09:10;17.30;99.90
17341;DHT22;8788;49.930;8.660;2023-10-19T09:11:42;17.40;99.90
17341;DHT22;8788;49.930;8.660;2023-10-19T09:14:09;17.40;99.90
17341;DHT22;8788;49.930;8.660;2023-10-19T09:16:53;17.50;99.90
17341;DHT22;8788;49.930;8.660;2023-10-19T09:19:24;17.70;99.90
17341;DHT22;8788;49.930;8.660;2023-10-19T09:22:02;17.80;99.90
17341;DHT22;8788;49.930;8.660;2023-10-19T09:24:34;17.90;99.90
17341;DHT22;8788;49.930;8.660;2023-10-19T09:27:02;18.00;99.90
17341;DHT22;8788;49.930;8.660;2023-10-19T09:29:29;18.10;99.90
17341;DHT22;8788;49.930;8.660;2023-10-19T09:31:59;18.10;99.90
17341;DHT22;8788;49.930;8.660;2023-10-19T09:34:30;18.10;99.90
17341;DHT22;8788;49.930;8.660;2023-10-19T09:36:59;18.20;99.90
17341;DHT22;8788;49.930;8.660;2023-10-19T09:39:28;18.20;99.90
17341;DHT22;8788;49.930;8.660;2023-10-19T09:42:01;18.30;99.90
17341;DHT22;8788;49.930;8.660;2023-10-19T09:44:34;18.40;99.90
17341;DHT22;8788;49.930;8.660;2023-10-19T09:47:10;18.40;99.90
17341;DHT22;8788;49.930;8.660;2023-10-19T09:49:40;18.40;99.90
17341;DHT22;8788;49.930;8.660;2023-10-19T09:52:10;18.50;99.90
17341;DHT22;8788;49.930;8.660;2023-10-19T09:54:49;18.60;99.90
17341;DHT22;8788;49.930;8.660;2023-10-19T09:57:32;18.60;99.90
17341;DHT22;8788;49.930;8.660;2023-10-19T10:00:04;18.70;99.90
17341;DHT22;8788;49.930;8.660;2023-10-19T10:02:42;18.80;99.90
17341;DHT22;8788;49.930;8.660;2023-10-19T10:05:45;18.90;99.90
17341;DHT22;8788;49.930;8.660;2023-10-19T10:08:32;19.20;99.90
17341;DHT22;8788;49.930;8.660;2023-10-19T10:11:17;19.30;99.90
17341;DHT22;8788;49.930;8.660;2023-10-19T10:13:45;19.40;99.90
17341;DHT22;8788;49.930;8.660;2023-10-19T10:16:16;19.50;99.90
17341;DHT22;8788;49.930;8.660;2023-10-19T10:18:46;19.60;99.90
17341;DHT22;8788;49.930;8.660;2023-10-19T10:21:18;19.80;99.90
17341;DHT22;8788;49.930;8.660;2023-10-19T10:23:50;19.90;99.90
17341;DHT22;8788;49.930;8.660;2023-10-19T10:26:21;20.10;99.90
17341;DHT22;8788;49.930;8.660;2023-10-19T10:29:08;20.40;99.90
17341;DHT22;8788;49.930;8.660;2023-10-19T10:31:42;20.60;99.90
17341;DHT22;8788;49.930;8.660;2023-10-19T10:34:12;20.80;99.90
17341;DHT22;8788;49.930;8.660;2023-10-19T10:37:00;20.70;99.90
17341;DHT22;8788;49.930;8.660;2023-10-19T10:39:28;20.70;99.90
17341;DHT22;8788;49.930;8.660;2023-10-19T10:41:56;20.70;99.90
17341;DHT22;8788;49.930;8.660;2023-10-19T10:44:37;20.80;99.90
17341;DHT22;8788;49.930;8.660;2023-10-19T10:47:06;20.80;99.90
17341;DHT22;8788;49.930;8.660;2023-10-19T10:49:49;20.70;99.90
17341;DHT22;8788;49.930;8.660;2023-10-19T10:52:26;20.80;99.90
17341;DHT22;8788;49.930;8.660;2023-10-19T10:54:54;20.70;99.90
17341;DHT22;8788;49.930;8.660;2023-10-19T10:57:22;20.50;99.90
17341;DHT22;8788;49.930;8.660;2023-10-19T11:00:02;20.40;99.90
17341;DHT22;8788;49.930;8.660;2023-10-19T11:02:30;20.20;99.90
17341;DHT22;8788;49.930;8.660;2023-10-19T11:04:59;20.00;99.90
17341;DHT22;8788;49.930;8.660;2023-10-19T11:07:26;19.90;99.90
17341;DHT22;8788;49.930;8.660;2023-10-19T11:09:53;19.80;99.90
17341;DHT22;8788;49.930;8.660;2023-10-19T11:12:21;19.70;99.90
17341;DHT22;8788;49.930;8.660;2023-10-19T11:14:52;19.60;99.90
17341;DHT22;8788;49.930;8.660;2023-10-19T11:17:20;19.60;99.90
17341;DHT22;8788;49.930;8.660;2023-10-19T11:19:54;19.50;99.90
17341;DHT22;8788;49.930;8.660;2023-10-19T11:22:24;19.50;99.90
17341;DHT22;8788;49.930;8.660;2023-10-19T11:24:52;19.50;99.90
17341;DHT22;8788;49.930;8.660;2023-10-19T11:27:24;19.40;99.90
17341;DHT22;8788;49.930;8.660;2023-10-19T11:29:56;19.40;99.90
17341;DHT22;8788;49.930;8.660;2023-10-19T11:32:24;19.40;99.90
17341;DHT22;8788;49.930;8.660;2023-10-19T11:34:52;19.40;99.90
17341;DHT22;8788;49.930;8.660;2023-10-19T11:37:19;19.40;99.90
17341;DHT22;8788;49.930;8.660;2023-10-19T11:39:48;19.50;99.90
17341;DHT22;8788;49.930;8.660;2023-10-19T11:42:17;19.40;99.90
17341;DHT22;8788;49.930;8.660;2023-10-19T11:44:45;19.40;99.90
17341;DHT22;8788;49.930;8.660;2023-10-19T11:47:12;19.40;99.90
17341;DHT22;8788;49.930;8.660;2023-10-19T11:49:40;19.50;99.90
17341;DHT22;8788;49.930;8.660;2023-10-19T11:52:07;19.50;99.90
17341;DHT22;8788;49.930;8.660;2023-10-19T11:54:34;19.50;99.90
17341;DHT22;8788;49.930;8.660;2023-10-19T11:57:03;19.40;99.90
17341;DHT22;8788;49.930;8.660;2023-10-19T11:59:30;19.40;99.90
17341;DHT22;8788;49.930;8.660;2023-10-19T12:01:57;19.50;99.90
17341;DHT22;8788;49.930;8.660;2023-10-19T12:04:26;19.60;99.90
17341;DHT22;8788;49.930;8.660;2023-10-19T12:06:53;19.70;99.90
17341;DHT22;8788;49.930;8.660;2023-10-19T12:09:21;19.70;99.90
17341;DHT22;8788;49.930;8.660;2023-10-19T12:11:50;19.70;99.90
17341;DHT22;8788;49.930;8.660;2023-10-19T12:14:21;19.70;99.90
17341;DHT22;8788;49.930;8.660;2023-10-19T12:16:48;19.70;99.90
17341;DHT22;8788;49.930;8.660;2023-10-19T12:19:15;19.70;99.90
17341;DHT22;8788;49.930;8.660;2023-10-19T12:21:44;19.70;99.90
17341;DHT22;8788;49.930;8.660;2023-10-19T12:24:12;19.70;99.90
17341;DHT22;8788;49.930;8.660;2023-10-19T12:26:40;19.60;99.90
17341;DHT22;8788;49.930;8.660;2023-10-19T12:29:07;19.60;99.90
17341;DHT22;8788;49.930;8.660;2023-10-19T12:31:38;19.60;99.90
17341;DHT22;8788;49.930;8.660;2023-10-19T12:34:06;19.60;99.90
17341;DHT22;8788;49.930;8.660;2023-10-19T12:36:34;19.50;99.90
17341;DHT22;8788;49.930;8.660;2023-10-19T12:39:01;19.50;99.90
17341;DHT22;8788;49.930;8.660;2023-10-19T12:41:31;19.50;99.90
17341;DHT22;8788;49.930;8.660;2023-10-19T12:43:58;19.40;99.90
17341;DHT22;8788;49.930;8.660;2023-10-19T12:46:27;19.30;99.90
17341;DHT22;8788;49.930;8.660;2023-10-19T12:48:57;19.30;99.90
17341;DHT22;8788;49.930;8.660;2023-10-19T12:51:25;19.30;99.90
17341;DHT22;8788;49.930;8.660;2023-10-19T12:53:52;19.20;99.90
17341;DHT22;8788;49.930;8.660;2023-10-19T12:56:20;19.10;99.90
17341;DHT22;8788;49.930;8.660;2023-10-19T12:58:50;19.10;99.90
17341;DHT22;8788;49.930;8.660;2023-10-19T13:01:17;19.10;99.90
17341;DHT22;8788;49.930;8.660;2023-10-19T13:03:45;19.00;99.90
17341;DHT22;8788;49.930;8.660;2023-10-19T13:06:14;19.00;99.90
17341;DHT22;8788;49.930;8.660;2023-10-19T13:08:41;18.90;99.90
17341;DHT22;8788;49.930;8.660;2023-10-19T13:11:08;18.80;99.90
17341;DHT22;8788;49.930;8.660;2023-10-19T13:13:39;18.90;99.90
17341;DHT22;8788;49.930;8.660;2023-10-19T13:16:07;18.90;99.90
17341;DHT22;8788;49.930;8.660;2023-10-19T13:18:35;18.90;99.90
17341;DHT22;8788;49.930;8.660;2023-10-19T13:21:02;18.80;99.90
17341;DHT22;8788;49.930;8.660;2023-10-19T13:23:32;18.80;99.90
17341;DHT22;8788;49.930;8.660;2023-10-19T13:26:00;18.80;99.90
17341;DHT22;8788;49.930;8.660;2023-10-19T13:28:42;18.70;99.90
17341;DHT22;8788;49.930;8.660;2023-10-19T13:31:10;18.60;99.90
17341;DHT22;8788;49.930;8.660;2023-10-19T13:33:39;18.60;99.90
17341;DHT22;8788;49.930;8.660;2023-10-19T13:36:07;18.50;99.90
17341;DHT22;8788;49.930;8.660;2023-10-19T13:38:36;18.50;99.90
17341;DHT22;8788;49.930;8.660;2023-10-19T13:41:03;18.40;99.90
17341;DHT22;8788;49.930;8.660;2023-10-19T13:43:33;18.30;99.90
17341;DHT22;8788;49.930;8.660;2023-10-19T13:46:01;18.30;99.90
17341;DHT22;8788;49.930;8.660;2023-10-19T13:48:30;18.20;99.90
17341;DHT22;8788;49.930;8.660;2023-10-19T13:50:58;18.20;99.90
17341;DHT22;8788;49.930;8.660;2023-10-19T13:53:31;18.20;99.90
17341;DHT22;8788;49.930;8.660;2023-10-19T13:56:00;18.20;99.90
17341;DHT22;8788;49.930;8.660;2023-10-19T13:58:27;18.20;99.90
17341;DHT22;8788;49.930;8.660;2023-10-19T14:00:54;18.00;99.90
17341;DHT22;8788;49.930;8.660;2023-10-19T14:03:21;18.00;99.90
17341;DHT22;8788;49.930;8.660;2023-10-19T14:05:48;18.00;99.90
17341;DHT22;8788;49.930;8.660;2023-10-19T14:08:17;18.00;99.90
17341;DHT22;8788;49.930;8.660;2023-10-19T14:10:46;18.00;99.90
17341;DHT22;8788;49.930;8.660;2023-10-19T14:13:15;18.00;99.90
17341;DHT22;8788;49.930;8.660;2023-10-19T14:15:42;18.00;99.90
17341;DHT22;8788;49.930;8.660;2023-10-19T14:18:09;18.00;99.90
17341;DHT22;8788;49.930;8.660;2023-10-19T14:20:37;18.00;99.90
17341;DHT22;8788;49.930;8.660;2023-10-19T14:23:06;18.00;99.90
17341;DHT22;8788;49.930;8.660;2023-10-19T14:25:36;18.00;99.90
17341;DHT22;8788;49.930;8.660;2023-10-19T14:28:04;18.00;99.90
17341;DHT22;8788;49.930;8.660;2023-10-19T14:30:33;18.00;99.90
17341;DHT22;8788;49.930;8.660;2023-10-19T14:33:01;18.00;99.90
17341;DHT22;8788;49.930;8.660;2023-10-19T14:35:28;17.90;99.90
17341;DHT22;8788;49.930;8.660;2023-10-19T14:37:56;17.90;99.90
17341;DHT22;8788;49.930;8.660;2023-10-19T14:40:26;17.90;99.90
17341;DHT22;8788;49.930;8.660;2023-10-19T14:42:55;18.00;99.90
17341;DHT22;8788;49.930;8.660;2023-10-19T14:45:24;18.00;99.90
17341;DHT22;8788;49.930;8.660;2023-10-19T14:47:56;18.00;99.90
17341;DHT22;8788;49.930;8.660;2023-10-19T14:50:24;18.00;99.90
17341;DHT22;8788;49.930;8.660;2023-10-19T14:52:53;18.00;99.90
17341;DHT22;8788;49.930;8.660;2023-10-19T14:55:21;17.90;99.90
17341;DHT22;8788;49.930;8.660;2023-10-19T14:57:49;17.90;99.90
17341;DHT22;8788;49.930;8.660;2023-10-19T15:00:19;17.90;99.90
17341;DHT22;8788;49.930;8.660;2023-10-19T15:02:53;18.00;99.90
17341;DHT22;8788;49.930;8.660;2023-10-19T15:05:23;18.00;99.90
17341;DHT22;8788;49.930;8.660;2023-10-19T15:07:51;18.00;99.90
17341;DHT22;8788;49.930;8.660;2023-10-19T15:10:20;18.00;99.90
17341;DHT22;8788;49.930;8.660;2023-10-19T15:12:47;18.00;99.90
17341;DHT22;8788;49.930;8.660;2023-10-19T15:15:14;17.90;99.90
17341;DHT22;8788;49.930;8.660;2023-10-19T15:17:42;17.90;99.90
17341;DHT22;8788;49.930;8.660;2023-10-19T15:20:10;17.80;99.90
17341;DHT22;8788;49.930;8.660;2023-10-19T15:22:39;17.80;99.90
17341;DHT22;8788;49.930;8.660;2023-10-19T15:25:07;17.80;99.90
17341;DHT22;8788;49.930;8.660;2023-10-19T15:27:35;17.80;99.90
17341;DHT22;8788;49.930;8.660;2023-10-19T15:30:03;17.90;99.90
17341;DHT22;8788;49.930;8.660;2023-10-19T15:32:31;17.90;99.90
17341;DHT22;8788;49.930;8.660;2023-10-19T15:34:58;18.10;99.90
17341;DHT22;8788;49.930;8.660;2023-10-19T15:37:25;18.80;99.90
17341;DHT22;8788;49.930;8.660;2023-10-19T15:39:54;19.70;99.90
17341;DHT22;8788;49.930;8.660;2023-10-19T15:42:21;20.70;99.90
17341;DHT22;8788;49.930;8.660;2023-10-19T15:44:48;22.00;99.90
17341;DHT22;8788;49.930;8.660;2023-10-19T15:47:15;22.90;99.90
17341;DHT22;8788;49.930;8.660;2023-10-19T15:49:46;23.00;99.90
17341;DHT22;8788;49.930;8.660;2023-10-19T15:52:17;22.20;99.90
17341;DHT22;8788;49.930;8.660;2023-10-19T15:54:45;21.30;99.90
17341;DHT22;8788;49.930;8.660;2023-10-19T15:57:13;20.50;99.90
17341;DHT22;8788;49.930;8.660;2023-10-19T15:59:41;19.90;99.90